createdAt,value
2018-11-23T00:00:55.442Z,90.30
2018-11-23T00:03:25.193Z,90.70
2018-11-23T00:05:55.445Z,90.60
2018-11-23T00:08:29.075Z,90.60
2018-11-23T00:10:59.358Z,90.60
2018-11-23T00:13:28.706Z,90.80
2018-11-23T00:15:59.013Z,91.00
2018-11-23T00:18:29.235Z,91.00
2018-11-23T00:20:59.007Z,90.80
2018-11-23T00:23:29.867Z,91.00
2018-11-23T00:26:02.801Z,90.70
2018-11-23T00:28:31.781Z,91.00
2018-11-23T00:31:03.199Z,91.00
2018-11-23T00:33:36.082Z,90.70
2018-11-23T00:36:08.647Z,90.70
2018-11-23T00:38:38.714Z,91.00
2018-11-23T00:41:08.976Z,91.00
2018-11-23T00:43:41.588Z,90.80
2018-11-23T00:46:13.194Z,90.80
2018-11-23T00:48:43.961Z,90.70
2018-11-23T00:51:13.666Z,90.80
2018-11-23T00:53:46.164Z,91.00
2018-11-23T00:56:17.769Z,91.10
2018-11-23T00:58:51.522Z,91.10
2018-11-23T01:01:21.311Z,91.00
2018-11-23T01:03:50.211Z,91.00
2018-11-23T01:06:19.392Z,90.80
2018-11-23T01:08:49.237Z,91.00
2018-11-23T01:11:21.170Z,90.50
2018-11-23T01:13:51.133Z,91.20
2018-11-23T01:16:24.372Z,91.00
2018-11-23T01:18:56.398Z,91.00
2018-11-23T01:21:33.461Z,91.10
2018-11-23T01:24:03.757Z,91.30
2018-11-23T01:26:34.776Z,91.50
2018-11-23T01:29:05.506Z,91.00
2018-11-23T01:31:37.608Z,91.30
2018-11-23T01:34:10.176Z,91.30
2018-11-23T01:36:39.564Z,91.40
2018-11-23T01:39:11.294Z,91.40
2018-11-23T01:41:43.324Z,91.00
2018-11-23T01:44:12.274Z,91.20
2018-11-23T01:46:42.032Z,91.30
2018-11-23T01:49:14.737Z,91.30
2018-11-23T01:51:45.522Z,91.40
2018-11-23T01:54:16.888Z,91.20
2018-11-23T01:56:45.992Z,91.20
2018-11-23T01:59:15.622Z,91.40
2018-11-23T02:01:46.906Z,91.20
2018-11-23T02:04:16.284Z,91.30
2018-11-23T02:06:47.100Z,91.50
2018-11-23T02:09:17.064Z,91.30
2018-11-23T02:11:46.048Z,91.50
2018-11-23T02:14:15.434Z,91.70
2018-11-23T02:16:45.166Z,91.70
2018-11-23T02:19:18.537Z,92.10
2018-11-23T02:21:47.964Z,92.00
2018-11-23T02:24:17.294Z,91.90
2018-11-23T02:26:47.420Z,92.00
2018-11-23T02:29:17.640Z,92.00
2018-11-23T02:31:48.844Z,92.10
2018-11-23T02:34:18.743Z,92.10
2018-11-23T02:36:47.704Z,91.90
2018-11-23T02:39:16.665Z,91.90
2018-11-23T02:41:47.458Z,91.60
2018-11-23T02:44:18.063Z,91.80
2018-11-23T02:46:53.750Z,91.90
2018-11-23T02:49:23.289Z,91.70
2018-11-23T02:51:52.317Z,91.70
2018-11-23T02:54:21.336Z,91.90
2018-11-23T02:56:50.224Z,91.70
2018-11-23T02:59:23.874Z,91.80
2018-11-23T03:01:53.639Z,91.80
2018-11-23T03:04:22.745Z,91.90
2018-11-23T03:06:54.266Z,91.70
2018-11-23T03:09:27.234Z,91.90
2018-11-23T03:11:58.198Z,91.60
2018-11-23T03:14:28.877Z,91.90
2018-11-23T03:17:00.040Z,91.80
2018-11-23T03:19:29.445Z,92.10
2018-11-23T03:21:59.351Z,91.80
2018-11-23T03:24:28.404Z,91.80
2018-11-23T03:27:01.843Z,91.80
2018-11-23T03:29:30.839Z,91.90
2018-11-23T03:32:00.500Z,92.00
2018-11-23T03:34:32.338Z,92.10
2018-11-23T03:37:02.496Z,92.00
2018-11-23T03:39:34.155Z,92.20
2018-11-23T03:42:02.534Z,92.10
2018-11-23T03:44:36.136Z,92.00
2018-11-23T03:47:07.585Z,92.00
2018-11-23T03:49:37.235Z,92.10
2018-11-23T03:52:06.906Z,92.40
2018-11-23T03:54:37.950Z,92.10
2018-11-23T03:57:08.299Z,92.30
2018-11-23T03:59:38.619Z,92.40
2018-11-23T04:02:11.184Z,92.30
2018-11-23T04:04:42.313Z,92.20
2018-11-23T04:07:12.669Z,92.60
2018-11-23T04:09:46.343Z,92.20
2018-11-23T04:12:15.448Z,92.00
2018-11-23T04:14:45.482Z,92.10
2018-11-23T04:17:15.700Z,92.30
2018-11-23T04:19:44.916Z,92.10
2018-11-23T04:22:17.365Z,92.20
2018-11-23T04:24:46.228Z,92.50
2018-11-23T04:27:18.023Z,92.10
2018-11-23T04:29:48.986Z,92.20
2018-11-23T04:32:21.980Z,92.60
2018-11-23T04:34:54.478Z,92.60
2018-11-23T04:37:24.961Z,92.60
2018-11-23T04:39:59.949Z,92.50
2018-11-23T04:42:30.011Z,92.60
2018-11-23T04:45:00.359Z,92.40
2018-11-23T04:47:30.652Z,92.30
2018-11-23T04:50:01.835Z,92.40
2018-11-23T04:52:35.225Z,92.30
2018-11-23T04:55:05.619Z,92.30
2018-11-23T04:57:34.969Z,92.40
2018-11-23T05:00:05.655Z,92.60
2018-11-23T05:02:34.697Z,92.70
2018-11-23T05:05:04.021Z,92.50
2018-11-23T05:07:33.595Z,92.60
2018-11-23T05:10:06.329Z,92.70
2018-11-23T05:12:37.458Z,92.80
2018-11-23T05:15:07.023Z,92.60
2018-11-23T05:17:36.774Z,92.90
2018-11-23T05:20:10.758Z,92.80
2018-11-23T05:22:40.965Z,92.50
2018-11-23T05:25:12.264Z,92.00
2018-11-23T05:27:44.070Z,92.40
2018-11-23T05:30:21.635Z,92.10
2018-11-23T05:32:52.255Z,91.90
2018-11-23T05:35:22.105Z,92.10
2018-11-23T05:37:54.765Z,91.90
2018-11-23T05:40:26.273Z,92.30
2018-11-23T05:43:04.262Z,92.30
2018-11-23T05:45:29.643Z,92.20
2018-11-23T05:48:04.627Z,92.40
2018-11-23T05:50:35.794Z,92.20
2018-11-23T05:53:07.105Z,92.10
2018-11-23T05:55:36.962Z,91.90
2018-11-23T05:58:08.949Z,92.30
2018-11-23T06:00:40.228Z,92.50
2018-11-23T06:03:13.550Z,92.40
2018-11-23T06:05:46.055Z,92.30
2018-11-23T06:08:17.138Z,92.30
2018-11-23T06:10:46.180Z,92.20
2018-11-23T06:13:18.679Z,91.90
2018-11-23T06:15:51.457Z,92.00
2018-11-23T06:18:20.383Z,92.30
2018-11-23T06:20:56.157Z,92.10
2018-11-23T06:23:27.680Z,92.50
2018-11-23T06:26:04.089Z,92.50
2018-11-23T06:28:34.673Z,92.40
2018-11-23T06:31:04.334Z,92.30
2018-11-23T06:33:41.127Z,92.20
2018-11-23T06:36:09.956Z,92.40
2018-11-23T06:38:44.856Z,92.20
2018-11-23T06:41:15.257Z,92.00
2018-11-23T06:43:46.591Z,92.10
2018-11-23T06:46:16.555Z,91.90
2018-11-23T06:48:46.540Z,91.80
2018-11-23T06:51:15.979Z,92.00
2018-11-23T06:53:44.679Z,92.10
2018-11-23T06:56:14.219Z,91.80
2018-11-23T06:58:42.958Z,91.90
2018-11-23T07:01:15.410Z,92.00
2018-11-23T07:03:45.193Z,92.00
2018-11-23T07:06:14.604Z,92.20
2018-11-23T07:08:44.122Z,92.10
2018-11-23T07:11:14.035Z,91.90
2018-11-23T07:13:44.091Z,92.10
2018-11-23T07:16:14.015Z,91.90
2018-11-23T07:18:47.635Z,91.90
2018-11-23T07:21:21.398Z,92.00
2018-11-23T07:23:46.045Z,91.80
2018-11-23T07:26:15.482Z,91.50
2018-11-23T07:28:44.842Z,91.90
2018-11-23T07:31:13.554Z,92.30
2018-11-23T07:33:42.280Z,92.40
2018-11-23T07:36:10.966Z,92.30
2018-11-23T07:38:39.686Z,92.20
2018-11-23T07:41:19.645Z,92.30
2018-11-23T07:43:48.713Z,92.30
2018-11-23T07:46:17.822Z,92.40
2018-11-23T07:48:47.153Z,91.90
2018-11-23T07:51:16.168Z,92.00
2018-11-23T07:53:45.076Z,91.70
2018-11-23T07:56:13.755Z,92.00
2018-11-23T07:58:43.589Z,92.30
2018-11-23T08:01:13.522Z,92.10
2018-11-23T08:03:43.798Z,92.30
2018-11-23T08:06:12.865Z,92.50
2018-11-23T08:08:45.920Z,92.10
2018-11-23T08:11:15.684Z,91.80
2018-11-23T08:13:46.591Z,91.80
2018-11-23T08:16:23.080Z,91.60
2018-11-23T08:18:55.368Z,91.70
2018-11-23T08:21:24.979Z,91.50
2018-11-23T08:23:53.628Z,91.40
2018-11-23T08:26:22.260Z,91.40
2018-11-23T08:28:50.970Z,90.80
2018-11-23T08:31:19.646Z,91.00
2018-11-23T08:33:48.492Z,91.30
2018-11-23T08:36:17.263Z,91.20
2018-11-23T08:38:45.870Z,91.40
2018-11-23T08:41:14.789Z,91.50
2018-11-23T08:43:43.422Z,91.70
2018-11-23T08:46:12.440Z,91.40
2018-11-23T08:48:41.243Z,91.60
2018-11-23T08:51:10.558Z,91.70
2018-11-23T08:53:40.077Z,91.50
2018-11-23T08:56:10.013Z,91.00
2018-11-23T08:58:41.220Z,91.30
2018-11-23T09:01:10.844Z,91.50
2018-11-23T09:03:39.836Z,91.70
2018-11-23T09:06:08.717Z,91.90
2018-11-23T09:08:38.781Z,91.70
2018-11-23T09:11:07.929Z,91.70
2018-11-23T09:13:37.847Z,91.70
2018-11-23T09:16:07.944Z,91.20
2018-11-23T09:18:39.949Z,91.20
2018-11-23T09:21:10.315Z,91.30
2018-11-23T09:23:41.743Z,91.10
2018-11-23T09:26:12.751Z,91.30
2018-11-23T09:28:42.470Z,91.60
2018-11-23T09:31:11.416Z,91.40
2018-11-23T09:33:42.182Z,91.50
2018-11-23T09:36:11.127Z,91.20
2018-11-23T09:38:39.944Z,91.40
2018-11-23T09:41:08.816Z,91.30
2018-11-23T09:43:39.115Z,91.20
2018-11-23T09:46:16.402Z,91.30
2018-11-23T09:48:47.404Z,91.50
2018-11-23T09:51:16.425Z,91.30
2018-11-23T09:53:46.752Z,91.20
2018-11-23T09:56:18.109Z,91.30
2018-11-23T09:58:48.171Z,91.10
2018-11-23T10:01:17.159Z,90.80
2018-11-23T10:03:47.489Z,90.50
2018-11-23T10:06:18.203Z,90.50
2018-11-23T10:08:47.005Z,90.50
2018-11-23T10:11:16.024Z,90.60
2018-11-23T10:13:47.921Z,90.60
2018-11-23T10:16:16.942Z,90.50
2018-11-23T10:18:47.610Z,90.20
2018-11-23T10:21:17.192Z,90.00
2018-11-23T10:23:46.812Z,90.40
2018-11-23T10:26:15.623Z,90.00
2018-11-23T10:28:44.450Z,90.20
2018-11-23T10:31:13.317Z,90.30
2018-11-23T10:33:41.968Z,90.70
2018-11-23T10:36:10.749Z,90.70
2018-11-23T10:38:42.853Z,90.40
2018-11-23T10:41:11.695Z,89.70
2018-11-23T10:43:42.848Z,90.00
2018-11-23T10:46:12.384Z,89.60
2018-11-23T10:48:42.520Z,89.90
2018-11-23T10:51:11.832Z,90.00
2018-11-23T10:53:41.272Z,89.10
2018-11-23T10:56:10.309Z,90.00
2018-11-23T10:58:39.847Z,90.00
2018-11-23T11:01:14.184Z,90.00
2018-11-23T11:03:49.744Z,90.20
2018-11-23T11:06:23.786Z,90.00
2018-11-23T11:08:53.231Z,90.00
2018-11-23T11:11:21.958Z,90.00
2018-11-23T11:13:50.707Z,90.40
2018-11-23T11:16:19.442Z,90.30
2018-11-23T11:18:49.484Z,90.30
2018-11-23T11:21:18.856Z,90.00
2018-11-23T11:23:49.003Z,89.80
2018-11-23T11:26:33.999Z,89.50
2018-11-23T11:29:04.492Z,90.20
2018-11-23T11:31:34.224Z,89.90
2018-11-23T11:34:03.912Z,90.00
2018-11-23T11:36:32.858Z,89.50
2018-11-23T11:39:01.687Z,89.90
2018-11-23T11:41:30.419Z,89.90
2018-11-23T11:43:59.754Z,89.90
2018-11-23T11:46:29.111Z,90.00
2018-11-23T11:48:57.823Z,90.00
2018-11-23T11:51:26.543Z,89.80
2018-11-23T11:53:55.288Z,90.00
2018-11-23T11:56:24.187Z,90.00
2018-11-23T11:58:52.924Z,90.00
2018-11-23T12:01:23.791Z,90.30
2018-11-23T12:03:53.285Z,90.30
2018-11-23T12:06:22.103Z,90.50
2018-11-23T12:08:51.652Z,90.30
2018-11-23T12:11:22.865Z,90.50
2018-11-23T12:13:51.566Z,90.60
2018-11-23T12:16:20.256Z,90.60
2018-11-23T12:18:48.965Z,90.70
2018-11-23T12:21:20.717Z,90.50
2018-11-23T12:23:49.461Z,90.80
2018-11-23T12:26:19.037Z,90.50
2018-11-23T12:28:48.598Z,90.20
2018-11-23T12:31:17.525Z,90.30
2018-11-23T12:33:46.933Z,90.40
2018-11-23T12:36:15.849Z,90.30
2018-11-23T12:38:44.575Z,90.40
2018-11-23T12:41:13.269Z,90.20
2018-11-23T12:43:42.966Z,90.30
2018-11-23T12:46:12.327Z,90.20
2018-11-23T12:48:41.234Z,90.20
2018-11-23T12:51:09.947Z,90.20
2018-11-23T12:53:38.659Z,90.10
2018-11-23T12:56:07.394Z,90.00
2018-11-23T12:58:36.150Z,90.20
2018-11-23T13:01:04.821Z,90.20
2018-11-23T13:03:33.565Z,90.20
2018-11-23T13:06:02.316Z,90.40
2018-11-23T13:08:31.001Z,90.70
2018-11-23T13:10:59.619Z,90.70
2018-11-23T13:13:28.316Z,90.80
2018-11-23T13:15:57.016Z,90.20
2018-11-23T13:18:25.712Z,90.30
2018-11-23T13:20:55.155Z,90.50
2018-11-23T13:23:25.790Z,90.70
2018-11-23T13:25:54.791Z,90.60
2018-11-23T13:28:23.559Z,90.80
2018-11-23T13:30:53.299Z,90.60
2018-11-23T13:33:22.247Z,90.60
2018-11-23T13:35:51.057Z,90.80
2018-11-23T13:38:19.752Z,90.80
2018-11-23T13:40:48.599Z,90.80
2018-11-23T13:43:18.416Z,91.00
2018-11-23T13:45:48.150Z,90.90
2018-11-23T13:48:20.110Z,91.00
2018-11-23T13:50:45.686Z,91.00
2018-11-23T13:53:14.382Z,91.00
2018-11-23T13:55:44.364Z,90.90
2018-11-23T13:58:13.746Z,90.80
2018-11-23T14:00:42.466Z,90.70
2018-11-23T14:03:11.293Z,90.80
2018-11-23T14:05:42.926Z,91.00
2018-11-23T14:08:11.607Z,91.00
2018-11-23T14:10:41.571Z,91.00
2018-11-23T14:13:11.779Z,91.30
2018-11-23T14:16:12.932Z,91.00
2018-11-23T14:19:01.208Z,91.10
2018-11-23T14:21:37.376Z,91.30
2018-11-23T14:24:10.592Z,91.20
2018-11-23T14:26:40.170Z,91.20
2018-11-23T14:29:11.704Z,91.30
2018-11-23T14:31:48.488Z,91.30
2018-11-23T14:34:19.200Z,91.00
2018-11-23T14:36:55.486Z,91.30
2018-11-23T14:39:24.371Z,91.60
2018-11-23T14:41:59.263Z,91.60
2018-11-23T14:44:35.086Z,91.60
2018-11-23T14:47:03.846Z,91.80
2018-11-23T14:49:32.594Z,91.90
2018-11-23T14:52:01.504Z,91.60
2018-11-23T14:54:30.392Z,91.60
2018-11-23T14:57:00.530Z,91.70
2018-11-23T14:59:30.363Z,91.60
2018-11-23T15:01:58.131Z,91.50
2018-11-23T15:04:27.656Z,91.50
2018-11-23T15:06:56.612Z,91.50
2018-11-23T15:09:25.634Z,91.40
2018-11-23T15:11:55.385Z,91.40
2018-11-23T15:14:24.271Z,91.40
2018-11-23T15:16:53.260Z,91.30
2018-11-23T15:19:21.983Z,91.50
2018-11-23T15:21:50.842Z,91.40
2018-11-23T15:24:19.882Z,91.30
2018-11-23T15:26:48.795Z,91.50
2018-11-23T15:29:17.512Z,91.40
2018-11-23T15:31:46.335Z,91.30
2018-11-23T15:34:15.081Z,91.10
2018-11-23T15:36:43.816Z,91.50
2018-11-23T15:39:13.503Z,91.50
2018-11-23T15:41:43.443Z,91.50
2018-11-23T15:44:12.269Z,91.60
2018-11-23T15:46:41.004Z,91.20
2018-11-23T15:49:17.562Z,91.10
2018-11-23T15:51:46.329Z,91.50
2018-11-23T15:54:15.105Z,91.70
2018-11-23T15:56:43.886Z,91.70
2018-11-23T15:59:12.743Z,91.50
2018-11-23T16:01:41.458Z,91.50
2018-11-23T16:04:10.182Z,91.30
2018-11-23T16:06:38.932Z,91.00
2018-11-23T16:09:11.311Z,91.30
2018-11-23T16:11:39.995Z,91.40
2018-11-23T16:14:08.719Z,91.30
2018-11-23T16:16:37.462Z,91.20
2018-11-23T16:19:06.203Z,91.30
2018-11-23T16:21:34.949Z,91.80
2018-11-23T16:24:03.628Z,91.30
2018-11-23T16:26:32.284Z,91.60
2018-11-23T16:29:02.554Z,91.40
2018-11-23T16:31:34.651Z,91.50
2018-11-23T16:34:03.329Z,91.70
2018-11-23T16:36:31.995Z,91.80
2018-11-23T16:39:00.773Z,91.50
2018-11-23T16:41:29.457Z,91.60
2018-11-23T16:43:58.154Z,91.70
2018-11-23T16:46:27.861Z,91.50
2018-11-23T16:48:56.569Z,91.70
2018-11-23T16:51:25.289Z,91.80
2018-11-23T16:53:53.973Z,91.80
2018-11-23T16:56:22.609Z,91.70
2018-11-23T16:58:51.245Z,91.80
2018-11-23T17:01:19.993Z,91.90
2018-11-23T17:03:48.633Z,91.90
2018-11-23T17:06:17.272Z,91.90
2018-11-23T17:08:47.633Z,91.80
2018-11-23T17:11:17.183Z,91.80
2018-11-23T17:13:46.091Z,91.80
2018-11-23T17:16:16.896Z,91.80
2018-11-23T17:18:45.738Z,92.00
2018-11-23T17:21:15.277Z,92.00
2018-11-23T17:23:44.804Z,92.20
2018-11-23T17:26:13.475Z,92.00
2018-11-23T17:28:42.879Z,91.90
2018-11-23T17:31:18.428Z,92.00
2018-11-23T17:33:47.095Z,92.00
2018-11-23T17:36:15.794Z,92.00
2018-11-23T17:38:47.671Z,92.00
2018-11-23T17:41:13.327Z,92.00
2018-11-23T17:43:41.945Z,91.90
2018-11-23T17:46:10.725Z,91.90
2018-11-23T17:48:39.952Z,92.20
2018-11-23T17:51:10.436Z,92.20
2018-11-23T17:53:39.254Z,92.00
2018-11-23T17:56:07.908Z,91.50
2018-11-23T17:58:36.570Z,91.60
2018-11-23T18:01:06.049Z,91.80
2018-11-23T18:03:35.624Z,91.60
2018-11-23T18:06:04.365Z,91.70
2018-11-23T18:08:38.665Z,91.70
2018-11-23T18:11:01.804Z,91.70
2018-11-23T18:13:30.661Z,91.40
2018-11-23T18:15:59.368Z,91.60
2018-11-23T18:18:28.095Z,91.70
2018-11-23T18:20:56.752Z,92.00
2018-11-23T18:23:28.207Z,91.70
2018-11-23T18:25:57.140Z,91.60
2018-11-23T18:28:30.182Z,91.50
2018-11-23T18:31:00.229Z,91.50
2018-11-23T18:33:31.878Z,91.60
2018-11-23T18:36:01.307Z,91.50
2018-11-23T18:38:30.752Z,91.70
2018-11-23T18:40:59.500Z,91.60
2018-11-23T18:43:29.176Z,91.60
2018-11-23T18:45:58.948Z,91.70
2018-11-23T18:48:29.434Z,91.40
2018-11-23T18:50:59.365Z,91.70
2018-11-23T18:53:32.935Z,91.70
2018-11-23T18:56:01.901Z,91.60
2018-11-23T18:58:30.625Z,91.30
2018-11-23T19:00:59.356Z,91.30
2018-11-23T19:03:29.493Z,91.50
2018-11-23T19:05:58.259Z,91.60
2018-11-23T19:08:29.443Z,91.80
2018-11-23T19:10:59.276Z,91.70
2018-11-23T19:13:28.785Z,91.70
2018-11-23T19:15:59.654Z,91.70
2018-11-23T19:18:31.574Z,91.80
2018-11-23T19:21:08.108Z,91.80
2018-11-23T19:23:46.990Z,91.80
2018-11-23T19:26:16.913Z,91.70
2018-11-23T19:28:46.215Z,91.70
2018-11-23T19:31:14.895Z,91.90
2018-11-23T19:33:45.576Z,91.70
2018-11-23T19:36:19.238Z,91.60
2018-11-23T19:38:48.203Z,92.00
2018-11-23T19:41:18.516Z,91.70
2018-11-23T19:43:51.057Z,91.80
2018-11-23T19:46:19.982Z,91.90
2018-11-23T19:48:50.091Z,92.10
2018-11-23T19:51:23.727Z,92.00
2018-11-23T19:53:52.737Z,92.50
2018-11-23T19:56:22.599Z,92.20
2018-11-23T19:58:51.589Z,92.20
2018-11-23T20:01:21.323Z,92.10
2018-11-23T20:03:50.196Z,92.10
2018-11-23T20:06:19.989Z,92.10
2018-11-23T20:08:48.788Z,92.20
2018-11-23T20:11:17.642Z,92.50
2018-11-23T20:13:47.808Z,92.30
2018-11-23T20:16:20.083Z,92.30
2018-11-23T20:18:50.143Z,92.30
2018-11-23T20:21:20.058Z,92.50
2018-11-23T20:23:50.040Z,92.30
2018-11-23T20:26:19.082Z,92.40
2018-11-23T20:28:48.828Z,92.30
2018-11-23T20:31:18.040Z,92.50
2018-11-23T20:33:47.478Z,92.30
2018-11-23T20:36:17.080Z,92.50
2018-11-23T20:38:46.004Z,92.40
2018-11-23T20:41:15.332Z,92.40
2018-11-23T20:43:44.746Z,92.50
2018-11-23T20:46:14.896Z,92.30
2018-11-23T20:48:43.820Z,92.40
2018-11-23T20:51:17.895Z,92.60
2018-11-23T20:53:47.373Z,92.40
2018-11-23T20:56:17.180Z,92.30
2018-11-23T20:58:46.145Z,92.30
2018-11-23T21:01:14.947Z,92.30
2018-11-23T21:03:45.565Z,92.50
2018-11-23T21:06:19.209Z,92.30
2018-11-23T21:08:49.491Z,92.70
2018-11-23T21:11:21.703Z,92.50
2018-11-23T21:13:50.885Z,92.60
2018-11-23T21:16:21.189Z,92.60
2018-11-23T21:18:50.875Z,92.60
2018-11-23T21:21:19.993Z,92.60
2018-11-23T21:23:49.514Z,92.50
2018-11-23T21:26:18.251Z,92.30
2018-11-23T21:28:49.907Z,92.40
2018-11-23T21:31:19.430Z,92.40
2018-11-23T21:33:48.137Z,92.40
2018-11-23T21:36:17.375Z,92.60
2018-11-23T21:38:46.613Z,92.50
2018-11-23T21:41:15.388Z,92.50
2018-11-23T21:43:45.107Z,92.60
2018-11-23T21:46:13.851Z,92.60
2018-11-23T21:48:42.543Z,92.90
2018-11-23T21:51:14.657Z,93.00
2018-11-23T21:56:25.775Z,93.40
2018-11-23T21:58:54.628Z,93.00
2018-11-23T22:01:23.451Z,93.00
2018-11-23T22:03:53.430Z,93.00
2018-11-23T22:06:25.821Z,93.00
2018-11-23T22:08:59.121Z,93.10
2018-11-23T22:11:28.029Z,93.10
2018-11-23T22:13:57.122Z,93.00
2018-11-23T22:16:27.010Z,92.90
2018-11-23T22:18:56.811Z,93.10
2018-11-23T22:21:25.596Z,93.20
2018-11-23T22:24:01.740Z,93.20
2018-11-23T22:26:32.546Z,93.30
2018-11-23T22:29:13.488Z,93.10
2018-11-23T22:31:43.010Z,92.90
2018-11-23T22:34:11.866Z,93.00
2018-11-23T22:36:41.922Z,93.20
2018-11-23T22:39:12.035Z,93.30
2018-11-23T22:41:41.909Z,93.30
2018-11-23T22:44:11.363Z,93.00
2018-11-23T22:46:41.374Z,93.00
2018-11-23T22:49:10.861Z,93.20
2018-11-23T22:51:39.554Z,92.90
2018-11-23T22:54:09.937Z,93.00
2018-11-23T22:56:39.258Z,93.50
2018-11-23T22:59:08.122Z,93.20
2018-11-23T23:01:36.948Z,93.20
2018-11-23T23:04:07.348Z,93.30
2018-11-23T23:06:36.236Z,93.40
2018-11-23T23:09:09.781Z,93.30
2018-11-23T23:11:40.529Z,93.30
2018-11-23T23:14:09.199Z,93.20
2018-11-23T23:16:38.878Z,93.00
2018-11-23T23:19:11.468Z,93.20
2018-11-23T23:21:40.997Z,93.00
2018-11-23T23:24:19.576Z,93.20
2018-11-23T23:26:48.436Z,93.20
2018-11-23T23:29:17.223Z,93.30
2018-11-23T23:31:46.873Z,93.30
2018-11-23T23:34:19.348Z,93.20
2018-11-23T23:36:48.054Z,93.20
2018-11-23T23:39:17.443Z,93.30
2018-11-23T23:41:46.958Z,93.50
2018-11-23T23:44:20.379Z,93.30
2018-11-23T23:46:50.000Z,93.30
2018-11-23T23:49:18.717Z,93.20
2018-11-23T23:51:47.614Z,93.30
2018-11-23T23:54:16.383Z,93.30
2018-11-23T23:56:45.018Z,93.30
2018-11-23T23:59:14.945Z,93.20
